createdAt,value
2023-04-01T00:00:09.475Z,281
2023-04-01T00:02:16.341Z,281
2023-04-01T00:04:22.624Z,282
2023-04-01T00:06:29.523Z,280
2023-04-01T00:08:36.397Z,280
2023-04-01T00:10:42.608Z,279
2023-04-01T00:12:49.548Z,280
2023-04-01T00:14:56.530Z,280
2023-04-01T00:17:03.209Z,280
2023-04-01T00:19:10.526Z,280
2023-04-01T00:21:17.240Z,280
2023-04-01T00:23:23.830Z,281
2023-04-01T00:25:30.876Z,280
2023-04-01T00:27:38.838Z,280
2023-04-01T00:29:45.388Z,280
2023-04-01T00:31:52.467Z,280
2023-04-01T00:33:59.022Z,281
2023-04-01T00:36:05.960Z,280
2023-04-01T00:38:13.110Z,280
2023-04-01T00:40:19.618Z,280
2023-04-01T00:42:25.828Z,280
2023-04-01T00:44:32.447Z,280
2023-04-01T00:46:38.802Z,281
2023-04-01T00:48:45.213Z,280
2023-04-01T00:50:51.988Z,279
2023-04-01T00:52:58.894Z,280
2023-04-01T00:55:05.083Z,278
2023-04-01T00:57:11.454Z,279
2023-04-01T00:59:18.230Z,282
2023-04-01T01:01:24.978Z,281
2023-04-01T01:03:32.026Z,276
2023-04-01T01:05:52.679Z,280
2023-04-01T01:08:00.230Z,279
2023-04-01T01:10:07.178Z,277
2023-04-01T01:12:13.808Z,278
2023-04-01T01:14:20.178Z,279
2023-04-01T01:16:27.072Z,278
2023-04-01T01:18:34.085Z,280
2023-04-01T01:20:40.632Z,280
2023-04-01T01:22:47.120Z,280
2023-04-01T01:24:53.959Z,277
2023-04-01T01:27:03.536Z,281
2023-04-01T01:29:10.363Z,281
2023-04-01T01:31:16.932Z,280
2023-04-01T01:33:23.861Z,280
2023-04-01T01:35:30.572Z,280
2023-04-01T01:37:37.659Z,280
2023-04-01T01:39:44.304Z,280
2023-04-01T01:41:51.518Z,280
2023-04-01T01:43:58.030Z,280
2023-04-01T01:46:04.924Z,280
2023-04-01T01:48:11.850Z,280
2023-04-01T01:50:18.432Z,280
2023-04-01T01:52:25.368Z,281
2023-04-01T01:54:31.839Z,281
2023-04-01T01:56:38.292Z,280
2023-04-01T01:58:45.210Z,281
2023-04-01T02:00:54.311Z,280
2023-04-01T02:03:01.836Z,280
2023-04-01T02:05:08.210Z,280
2023-04-01T02:07:14.624Z,280
2023-04-01T02:09:21.455Z,280
2023-04-01T02:11:28.241Z,280
2023-04-01T02:13:34.982Z,280
2023-04-01T02:15:41.544Z,280
2023-04-01T02:17:48.398Z,280
2023-04-01T02:19:55.129Z,280
2023-04-01T02:22:01.628Z,280
2023-04-01T02:24:08.520Z,280
2023-04-01T02:26:15.054Z,280
2023-04-01T02:28:21.602Z,280
2023-04-01T02:30:28.178Z,280
2023-04-01T02:32:35.442Z,280
2023-04-01T02:34:41.512Z,280
2023-04-01T02:36:48.179Z,280
2023-04-01T02:38:54.502Z,280
2023-04-01T02:41:01.213Z,281
2023-04-01T02:43:08.085Z,281
2023-04-01T02:45:15.143Z,280
2023-04-01T02:47:22.405Z,280
2023-04-01T02:49:28.617Z,280
2023-04-01T02:51:35.973Z,280
2023-04-01T02:53:42.910Z,280
2023-04-01T02:55:50.383Z,281
2023-04-01T02:57:56.946Z,280
2023-04-01T03:00:03.980Z,281
2023-04-01T03:02:11.486Z,281
2023-04-01T03:04:21.410Z,281
2023-04-01T03:06:28.163Z,281
2023-04-01T03:08:35.201Z,281
2023-04-01T03:10:41.945Z,281
2023-04-01T03:12:48.772Z,281
2023-04-01T03:14:55.282Z,280
2023-04-01T03:17:01.997Z,280
2023-04-01T03:19:08.434Z,281
2023-04-01T03:21:15.354Z,281
2023-04-01T03:23:22.163Z,281
2023-04-01T03:25:29.537Z,281
2023-04-01T03:27:36.579Z,281
2023-04-01T03:29:43.628Z,281
2023-04-01T03:31:50.496Z,280
2023-04-01T03:33:57.012Z,280
2023-04-01T03:36:03.867Z,281
2023-04-01T03:38:11.100Z,281
2023-04-01T03:40:17.565Z,279
2023-04-01T03:42:24.021Z,280
2023-04-01T03:44:30.678Z,279
2023-04-01T03:46:38.048Z,280
2023-04-01T03:48:46.011Z,280
2023-04-01T03:50:52.660Z,280
2023-04-01T03:52:59.576Z,280
2023-04-01T03:55:06.508Z,280
2023-04-01T03:57:13.658Z,280
2023-04-01T03:59:20.764Z,280
2023-04-01T04:01:28.303Z,280
2023-04-01T04:03:35.564Z,280
2023-04-01T04:05:42.466Z,280
2023-04-01T04:07:49.135Z,280
2023-04-01T04:09:55.769Z,280
2023-04-01T04:12:02.562Z,280
2023-04-01T04:14:09.524Z,280
2023-04-01T04:16:15.978Z,280
2023-04-01T04:18:22.727Z,281
2023-04-01T04:20:29.524Z,280
2023-04-01T04:22:35.764Z,281
2023-04-01T04:24:42.979Z,280
2023-04-01T04:26:49.745Z,281
2023-04-01T04:28:56.905Z,282
2023-04-01T04:31:04.578Z,282
2023-04-01T04:33:11.673Z,281
2023-04-01T04:35:18.346Z,281
2023-04-01T04:37:25.115Z,282
2023-04-01T04:39:31.129Z,282
2023-04-01T04:41:40.618Z,281
2023-04-01T04:43:46.815Z,281
2023-04-01T04:45:54.998Z,281
2023-04-01T04:48:02.733Z,280
2023-04-01T04:50:10.140Z,282
2023-04-01T04:52:18.794Z,282
2023-04-01T04:54:25.869Z,282
2023-04-01T04:56:32.619Z,282
2023-04-01T04:58:39.521Z,282
2023-04-01T05:00:45.778Z,282
2023-04-01T05:02:53.184Z,278
2023-04-01T05:05:00.346Z,279
2023-04-01T05:07:07.530Z,279
2023-04-01T05:09:14.127Z,280
2023-04-01T05:11:20.627Z,281
2023-04-01T05:13:27.037Z,281
2023-04-01T05:15:34.017Z,281
2023-04-01T05:17:40.903Z,279
2023-04-01T05:19:47.286Z,282
2023-04-01T05:21:53.785Z,282
2023-04-01T05:24:00.458Z,282
2023-04-01T05:26:07.218Z,282
2023-04-01T05:28:13.359Z,282
2023-04-01T05:30:19.846Z,282
2023-04-01T05:32:26.581Z,282
2023-04-01T05:34:33.273Z,282
2023-04-01T05:36:39.908Z,283
2023-04-01T05:38:47.073Z,282
2023-04-01T05:40:53.809Z,282
2023-04-01T05:43:01.302Z,296
2023-04-01T05:45:08.908Z,296
2023-04-01T05:47:15.702Z,296
2023-04-01T05:49:24.092Z,296
2023-04-01T05:51:33.908Z,296
2023-04-01T05:53:41.206Z,296
2023-04-01T05:55:48.908Z,296
2023-04-01T05:57:56.509Z,296
2023-04-01T06:00:04.085Z,296
2023-04-01T06:02:12.555Z,296
2023-04-01T06:04:19.928Z,296
2023-04-01T06:06:27.303Z,296
2023-04-01T06:08:34.769Z,296
2023-04-01T06:10:42.887Z,296
2023-04-01T06:12:53.134Z,296
2023-04-01T06:15:01.000Z,296
2023-04-01T06:17:07.564Z,296
2023-04-01T06:19:14.508Z,296
2023-04-01T06:21:20.625Z,296
2023-04-01T06:23:28.103Z,296
2023-04-01T06:25:36.392Z,297
2023-04-01T06:27:44.627Z,296
2023-04-01T06:29:53.213Z,297
2023-04-01T06:32:00.442Z,297
2023-04-01T06:34:07.290Z,297
2023-04-01T06:36:14.731Z,297
2023-04-01T06:38:22.120Z,297
2023-04-01T06:40:29.407Z,297
2023-04-01T06:42:37.520Z,297
2023-04-01T06:44:45.447Z,297
2023-04-01T06:46:53.450Z,297
2023-04-01T06:49:01.538Z,297
2023-04-01T06:51:09.309Z,297
2023-04-01T06:53:17.140Z,297
2023-04-01T06:55:26.096Z,297
2023-04-01T06:57:33.628Z,297
2023-04-01T06:59:42.208Z,297
2023-04-01T07:01:50.140Z,297
2023-04-01T07:03:58.363Z,297
2023-04-01T07:06:06.609Z,297
2023-04-01T07:08:15.470Z,297
2023-04-01T07:10:27.556Z,297
2023-04-01T07:12:40.514Z,297
2023-04-01T07:14:51.285Z,297
2023-04-01T07:16:59.522Z,297
2023-04-01T07:19:07.226Z,297
2023-04-01T07:21:14.802Z,297
2023-04-01T07:23:23.297Z,297
2023-04-01T07:25:30.268Z,297
2023-04-01T07:27:37.049Z,297
2023-04-01T07:29:43.521Z,297
2023-04-01T07:31:49.974Z,297
2023-04-01T07:34:01.509Z,297
2023-04-01T07:36:15.105Z,297
2023-04-01T07:38:28.947Z,273
2023-04-01T07:40:41.410Z,273
2023-04-01T07:43:13.728Z,273
2023-04-01T07:47:46.260Z,273
2023-04-01T07:49:54.655Z,273
2023-04-01T07:52:11.835Z,274
2023-04-01T07:54:19.518Z,273
2023-04-01T07:56:38.476Z,277
2023-04-01T07:58:54.505Z,278
2023-04-01T08:01:02.802Z,284
2023-04-01T08:03:13.162Z,283
2023-04-01T08:05:21.845Z,283
2023-04-01T08:07:37.398Z,282
2023-04-01T08:09:53.220Z,284
2023-04-01T08:12:00.962Z,284
2023-04-01T08:14:11.588Z,279
2023-04-01T08:16:21.969Z,284
2023-04-01T08:18:30.263Z,283
2023-04-01T08:20:38.667Z,284
2023-04-01T08:22:49.940Z,279
2023-04-01T08:24:58.011Z,281
2023-04-01T08:27:07.771Z,286
2023-04-01T08:29:18.261Z,288
2023-04-01T08:31:31.201Z,288
2023-04-01T08:33:41.584Z,288
2023-04-01T08:35:52.349Z,288
2023-04-01T08:38:05.138Z,284
2023-04-01T08:40:18.299Z,284
2023-04-01T08:42:25.792Z,284
2023-04-01T08:44:40.105Z,284
2023-04-01T08:46:54.965Z,284
2023-04-01T08:49:03.349Z,284
2023-04-01T08:51:42.014Z,283
2023-04-01T08:53:52.083Z,283
2023-04-01T08:56:00.966Z,283
2023-04-01T08:58:11.077Z,284
2023-04-01T09:00:25.633Z,286
2023-04-01T09:02:39.739Z,277
2023-04-01T09:04:48.477Z,290
2023-04-01T09:06:56.404Z,289
2023-04-01T09:09:05.327Z,270
2023-04-01T09:11:12.430Z,272
2023-04-01T09:13:23.782Z,272
2023-04-01T09:15:32.770Z,272
2023-04-01T09:17:41.658Z,272
2023-04-01T09:19:53.116Z,273
2023-04-01T09:22:04.519Z,273
2023-04-01T09:24:13.816Z,274
2023-04-01T09:26:24.566Z,273
2023-04-01T09:28:34.139Z,274
2023-04-01T09:30:45.060Z,274
2023-04-01T09:33:35.805Z,273
2023-04-01T09:36:54.492Z,274
2023-04-01T10:06:22.497Z,298
2023-04-01T10:08:42.243Z,298
2023-04-01T10:11:33.960Z,298
2023-04-01T10:14:02.639Z,298
2023-04-01T10:19:25.674Z,298
2023-04-01T10:21:40.097Z,298
2023-04-01T10:23:50.458Z,298
2023-04-01T10:42:23.710Z,298
2023-04-01T10:44:57.988Z,298
2023-04-01T10:47:27.098Z,298
2023-04-01T10:49:47.213Z,300
2023-04-01T10:52:07.076Z,300
2023-04-01T10:54:21.373Z,300
2023-04-01T10:56:53.158Z,300
2023-04-01T10:59:15.571Z,298
2023-04-01T11:01:26.825Z,300
2023-04-01T11:03:45.611Z,300
2023-04-01T11:06:07.857Z,300
2023-04-01T11:08:21.571Z,300
2023-04-01T11:10:33.375Z,300
2023-04-01T11:12:57.162Z,300
2023-04-01T11:15:19.940Z,300
2023-04-01T11:17:31.318Z,300
2023-04-01T11:20:18.291Z,300
2023-04-01T11:22:35.865Z,300
2023-04-01T11:24:53.587Z,300
2023-04-01T11:27:23.568Z,300
2023-04-01T11:29:59.575Z,300
2023-04-01T11:32:20.901Z,300
2023-04-01T11:34:51.063Z,300
2023-04-01T11:37:18.158Z,300
2023-04-01T11:39:36.433Z,300
2023-04-01T11:42:05.633Z,300
2023-04-01T11:44:19.854Z,300
2023-04-01T11:46:33.889Z,300
2023-04-01T11:48:57.141Z,300
2023-04-01T11:51:10.719Z,300
2023-04-01T11:53:20.318Z,300
2023-04-01T11:55:30.688Z,300
2023-04-01T11:57:41.911Z,300
2023-04-01T11:59:53.898Z,300
2023-04-01T12:02:09.542Z,300
2023-04-01T12:04:28.433Z,300
2023-04-01T12:06:40.966Z,300
2023-04-01T12:12:25.455Z,300
2023-04-01T12:14:42.102Z,300
2023-04-01T12:16:58.838Z,301
2023-04-01T12:19:12.138Z,300
2023-04-01T12:21:24.469Z,300
2023-04-01T12:23:40.275Z,300
2023-04-01T12:25:52.927Z,300
2023-04-01T12:28:01.400Z,300
2023-04-01T12:30:08.731Z,300
2023-04-01T12:32:19.050Z,300
2023-04-01T12:34:27.903Z,300
2023-04-01T12:36:37.800Z,300
2023-04-01T12:38:54.526Z,301
2023-04-01T12:41:01.906Z,300
2023-04-01T12:43:16.232Z,300
2023-04-01T12:45:24.954Z,301
2023-04-01T12:47:34.013Z,300
2023-04-01T12:49:44.756Z,300
2023-04-01T12:51:53.678Z,301
2023-04-01T12:54:01.955Z,301
2023-04-01T12:56:15.897Z,301
2023-04-01T12:58:23.756Z,301
2023-04-01T13:00:34.831Z,301
2023-04-01T13:02:48.337Z,301
2023-04-01T13:04:56.928Z,300
2023-04-01T13:07:08.173Z,301
2023-04-01T13:09:16.460Z,300
2023-04-01T13:11:24.437Z,301
2023-04-01T13:13:34.117Z,300
2023-04-01T13:16:06.013Z,300
2023-04-01T13:18:38.266Z,301
2023-04-01T13:21:19.207Z,300
2023-04-01T13:23:56.259Z,301
2023-04-01T13:29:38.963Z,301
2023-04-01T13:31:55.417Z,300
2023-04-01T13:34:04.361Z,301
2023-04-01T13:43:11.337Z,301
2023-04-01T13:48:42.811Z,301
2023-04-01T13:50:58.251Z,300
2023-04-01T13:53:10.950Z,300
2023-04-01T13:55:19.129Z,301
2023-04-01T13:57:56.514Z,300
2023-04-01T14:03:51.057Z,301
2023-04-01T14:13:22.887Z,301
2023-04-01T14:19:03.254Z,301
2023-04-01T14:21:13.601Z,301
2023-04-01T14:23:22.819Z,301
2023-04-01T14:25:37.505Z,301
2023-04-01T14:27:47.292Z,301
2023-04-01T14:29:55.311Z,301
2023-04-01T14:32:02.500Z,301
2023-04-01T14:34:08.961Z,301
2023-04-01T14:36:18.718Z,301
2023-04-01T14:38:28.542Z,301
2023-04-01T14:40:36.188Z,301
2023-04-01T14:42:43.315Z,301
2023-04-01T14:44:51.485Z,301
2023-04-01T14:47:00.038Z,301
2023-04-01T14:49:09.587Z,301
2023-04-01T14:51:19.901Z,301
2023-04-01T14:53:26.655Z,301
2023-04-01T14:55:35.315Z,301
2023-04-01T14:57:43.359Z,301
2023-04-01T14:59:52.168Z,301
2023-04-01T15:02:01.231Z,301
2023-04-01T15:04:08.908Z,301
2023-04-01T15:06:21.518Z,301
2023-04-01T15:08:29.073Z,301
2023-04-01T15:10:38.292Z,301
2023-04-01T15:12:46.012Z,301
2023-04-01T15:14:53.629Z,301
2023-04-01T15:17:02.798Z,301
2023-04-01T15:19:12.281Z,301
2023-04-01T15:21:20.709Z,301
2023-04-01T15:23:30.048Z,301
2023-04-01T15:25:42.071Z,301
2023-04-01T15:27:53.027Z,301
2023-04-01T15:30:01.173Z,301
2023-04-01T15:32:12.778Z,301
2023-04-01T15:34:21.186Z,253
2023-04-01T15:36:29.003Z,301
2023-04-01T15:38:41.194Z,301
2023-04-01T15:40:52.581Z,300
2023-04-01T15:43:02.717Z,295
2023-04-01T15:45:10.775Z,296
2023-04-01T15:47:20.084Z,297
2023-04-01T15:49:28.295Z,296
2023-04-01T15:51:38.211Z,297
2023-04-01T15:53:47.692Z,296
2023-04-01T15:55:58.376Z,298
2023-04-01T15:58:06.705Z,298
2023-04-01T16:00:20.668Z,298
2023-04-01T16:02:30.726Z,298
2023-04-01T16:04:40.899Z,298
2023-04-01T16:06:57.854Z,298
2023-04-01T16:09:06.512Z,300
2023-04-01T16:11:38.319Z,297
2023-04-01T16:13:46.263Z,297
2023-04-01T16:15:58.876Z,298
2023-04-01T16:18:07.489Z,298
2023-04-01T16:20:15.573Z,298
2023-04-01T16:22:25.950Z,300
2023-04-01T16:24:34.991Z,298
2023-04-01T16:26:44.086Z,298
2023-04-01T16:29:03.050Z,298
2023-04-01T16:31:41.161Z,298
2023-04-01T16:34:16.170Z,298
2023-04-01T16:36:37.000Z,298
2023-04-01T16:38:54.900Z,298
2023-04-01T16:41:11.437Z,298
2023-04-01T16:53:04.414Z,298
2023-04-01T17:02:26.558Z,298
2023-04-01T17:08:04.475Z,298
2023-04-01T17:13:47.576Z,297
2023-04-01T17:19:24.916Z,296
2023-04-01T17:25:06.161Z,297
2023-04-01T17:30:45.196Z,298
2023-04-01T17:36:30.552Z,298
2023-04-01T17:42:14.521Z,297
2023-04-01T17:44:23.250Z,296
2023-04-01T17:46:37.445Z,297
2023-04-01T17:48:51.346Z,297
2023-04-01T17:51:04.330Z,297
2023-04-01T17:53:15.507Z,298
2023-04-01T17:55:33.140Z,298
2023-04-01T17:57:49.189Z,298
2023-04-01T18:00:04.833Z,297
2023-04-01T18:02:24.468Z,298
2023-04-01T18:04:41.511Z,298
2023-04-01T18:06:54.494Z,298
2023-04-01T18:09:04.306Z,298
2023-04-01T18:11:17.426Z,297
2023-04-01T18:13:30.046Z,297
2023-04-01T18:15:40.083Z,297
2023-04-01T18:17:52.986Z,298
2023-04-01T18:20:04.597Z,297
2023-04-01T18:22:23.686Z,297
2023-04-01T18:27:50.504Z,298
2023-04-01T18:30:16.195Z,297
2023-04-01T18:35:50.244Z,298
2023-04-01T18:41:38.202Z,298
2023-04-01T18:43:49.059Z,298
2023-04-01T18:46:05.591Z,298
2023-04-01T18:48:17.434Z,298
2023-04-01T18:50:34.691Z,300
2023-04-01T18:52:46.517Z,300
2023-04-01T18:55:02.370Z,300
2023-04-01T18:57:12.420Z,300
2023-04-01T18:59:27.052Z,298
2023-04-01T19:01:44.526Z,297
2023-04-01T19:03:57.006Z,298
2023-04-01T19:06:12.136Z,298
2023-04-01T19:08:25.665Z,298
2023-04-01T19:10:40.677Z,300
2023-04-01T19:12:55.185Z,298
2023-04-01T19:15:06.597Z,298
2023-04-01T19:20:40.582Z,297
2023-04-01T19:22:59.013Z,297
2023-04-01T19:25:13.715Z,297
2023-04-01T19:27:33.468Z,296
2023-04-01T19:29:46.840Z,298
2023-04-01T19:32:04.074Z,297
2023-04-01T19:34:16.393Z,298
2023-04-01T19:36:31.503Z,294
2023-04-01T19:38:44.747Z,298
2023-04-01T19:41:00.624Z,298
2023-04-01T19:43:15.597Z,298
2023-04-01T19:45:33.920Z,297
2023-04-01T19:47:45.411Z,297
2023-04-01T19:50:19.454Z,300
2023-04-01T19:52:32.681Z,297
2023-04-01T19:54:46.084Z,298
2023-04-01T19:56:58.341Z,298
2023-04-01T19:59:08.640Z,297
2023-04-01T20:01:21.372Z,300
2023-04-01T20:03:43.300Z,300
2023-04-01T20:05:53.689Z,300
2023-04-01T20:08:03.466Z,300
2023-04-01T20:10:15.478Z,300
2023-04-01T20:12:29.082Z,301
2023-04-01T20:14:41.782Z,301
2023-04-01T20:16:50.802Z,301
2023-04-01T20:22:04.609Z,301
2023-04-01T20:24:20.776Z,301
2023-04-01T20:26:32.731Z,301
2023-04-01T20:28:45.576Z,301
2023-04-01T20:30:56.532Z,300
2023-04-01T20:33:10.904Z,297
2023-04-01T20:35:21.581Z,298
2023-04-01T20:37:38.761Z,300
2023-04-01T20:40:11.118Z,298
2023-04-01T20:42:23.878Z,300
2023-04-01T20:44:41.555Z,298
2023-04-01T20:46:52.952Z,301
2023-04-01T20:49:04.193Z,301
2023-04-01T20:51:15.371Z,301
2023-04-01T20:53:25.623Z,301
2023-04-01T20:55:35.737Z,301
2023-04-01T20:57:50.160Z,300
2023-04-01T21:00:03.442Z,301
2023-04-01T21:02:12.702Z,300
2023-04-01T21:04:21.328Z,301
2023-04-01T21:06:56.149Z,300
2023-04-01T21:09:07.228Z,301
2023-04-01T21:11:16.550Z,300
2023-04-01T21:13:24.881Z,298
2023-04-01T21:15:34.096Z,300
2023-04-01T21:17:57.467Z,298
2023-04-01T21:20:14.508Z,300
2023-04-01T21:22:26.913Z,300
2023-04-01T21:24:37.876Z,298
2023-04-01T21:26:51.038Z,300
2023-04-01T21:29:04.869Z,300
2023-04-01T21:31:15.558Z,300
2023-04-01T21:33:44.018Z,300
2023-04-01T21:35:54.862Z,300
2023-04-01T21:38:04.482Z,300
2023-04-01T21:40:15.010Z,300
2023-04-01T21:42:25.628Z,300
2023-04-01T21:44:45.232Z,300
2023-04-01T21:47:10.971Z,300
2023-04-01T21:49:18.280Z,300
2023-04-01T21:51:47.925Z,300
2023-04-01T21:54:02.634Z,300
2023-04-01T21:56:12.420Z,300
2023-04-01T21:58:23.462Z,300
2023-04-01T22:00:34.056Z,300
2023-04-01T22:02:54.165Z,300
2023-04-01T22:05:04.780Z,300
2023-04-01T22:07:12.117Z,300
2023-04-01T22:09:29.993Z,300
2023-04-01T22:11:48.170Z,300
2023-04-01T22:14:06.221Z,300
2023-04-01T22:16:18.436Z,300
2023-04-01T22:18:35.717Z,300
2023-04-01T22:20:46.934Z,300
2023-04-01T22:23:08.005Z,300
2023-04-01T22:25:26.974Z,300
2023-04-01T22:27:39.953Z,300
2023-04-01T22:30:00.321Z,300
2023-04-01T22:32:28.546Z,300
2023-04-01T22:34:49.689Z,300
2023-04-01T22:37:05.446Z,297
2023-04-01T22:39:15.538Z,297
2023-04-01T22:41:30.559Z,298
2023-04-01T22:43:40.724Z,298
2023-04-01T22:46:20.106Z,300
2023-04-01T22:48:35.568Z,301
2023-04-01T22:50:51.953Z,301
2023-04-01T22:53:03.834Z,301
2023-04-01T22:55:14.711Z,301
2023-04-01T22:57:24.966Z,296
2023-04-01T22:59:42.521Z,294
2023-04-01T23:01:58.382Z,298
2023-04-01T23:04:20.705Z,300
2023-04-01T23:06:39.249Z,301
2023-04-01T23:08:57.845Z,301
2023-04-01T23:11:20.508Z,301
2023-04-01T23:13:29.648Z,301
2023-04-01T23:15:38.393Z,301
2023-04-01T23:18:07.949Z,301
2023-04-01T23:20:31.503Z,301
2023-04-01T23:22:54.359Z,301
2023-04-01T23:25:07.787Z,301
2023-04-01T23:27:16.845Z,301
2023-04-01T23:29:23.560Z,301
2023-04-01T23:31:34.627Z,301
2023-04-01T23:33:45.969Z,301
2023-04-01T23:35:53.413Z,301
2023-04-01T23:38:01.958Z,301
2023-04-01T23:40:14.763Z,301
2023-04-01T23:42:21.380Z,301
2023-04-01T23:44:31.228Z,301
2023-04-01T23:46:48.627Z,301
2023-04-01T23:49:00.728Z,301
2023-04-01T23:51:07.914Z,301
2023-04-01T23:53:18.555Z,301
2023-04-01T23:55:26.614Z,291
2023-04-01T23:57:35.755Z,302
2023-04-01T23:59:42.452Z,302
